createdAt,value
2023-04-06T00:02:08.904Z,3.28
2023-04-06T00:04:35.441Z,3.06
2023-04-06T00:07:01.951Z,2.91
2023-04-06T00:09:28.409Z,2.98
2023-04-06T00:11:54.852Z,3.00
2023-04-06T00:14:21.935Z,3.10
2023-04-06T00:16:48.473Z,3.28
2023-04-06T00:19:16.736Z,2.85
2023-04-06T00:21:43.682Z,2.53
2023-04-06T00:24:10.368Z,2.42
2023-04-06T00:26:36.832Z,2.64
2023-04-06T00:29:03.610Z,2.68
2023-04-06T00:31:30.121Z,3.02
2023-04-06T00:33:56.662Z,3.05
2023-04-06T00:36:23.178Z,3.06
2023-04-06T00:38:49.718Z,2.83
2023-04-06T00:41:16.206Z,2.89
2023-04-06T00:43:42.650Z,2.69
2023-04-06T00:46:09.166Z,2.90
2023-04-06T00:48:35.754Z,2.51
2023-04-06T00:51:02.697Z,2.63
2023-04-06T00:53:29.141Z,2.80
2023-04-06T00:55:55.584Z,2.63
2023-04-06T00:58:22.101Z,2.40
2023-04-06T01:00:48.580Z,2.77
2023-04-06T01:03:15.116Z,2.72
2023-04-06T01:05:41.802Z,2.50
2023-04-06T01:08:08.722Z,2.58
2023-04-06T01:10:35.369Z,2.69
2023-04-06T01:13:01.846Z,2.82
2023-04-06T01:15:29.673Z,2.65
2023-04-06T01:17:56.108Z,2.34
2023-04-06T01:20:22.654Z,2.47
2023-04-06T01:22:49.121Z,2.49
2023-04-06T01:25:15.598Z,2.64
2023-04-06T01:27:42.235Z,2.61
2023-04-06T01:30:08.933Z,2.63
2023-04-06T01:32:35.402Z,2.51
2023-04-06T01:35:02.033Z,2.53
2023-04-06T01:37:30.450Z,2.49
2023-04-06T01:39:56.914Z,2.62
2023-04-06T01:42:23.382Z,2.80
2023-04-06T01:44:49.844Z,2.50
2023-04-06T01:47:16.282Z,2.58
2023-04-06T01:49:42.711Z,2.58
2023-04-06T01:52:09.244Z,2.41
2023-04-06T01:54:35.725Z,2.31
2023-04-06T01:57:02.190Z,2.39
2023-04-06T01:59:28.646Z,2.41
2023-04-06T02:01:55.137Z,2.53
2023-04-06T02:04:22.364Z,2.51
2023-04-06T02:06:48.898Z,2.51
2023-04-06T02:09:15.632Z,2.49
2023-04-06T02:11:42.113Z,2.78
2023-04-06T02:14:08.621Z,2.53
2023-04-06T02:16:35.120Z,2.38
2023-04-06T02:19:01.866Z,2.49
2023-04-06T02:21:28.313Z,2.30
2023-04-06T02:23:54.947Z,2.25
2023-04-06T02:26:21.763Z,2.09
2023-04-06T02:28:48.270Z,2.05
2023-04-06T02:31:16.088Z,2.06
2023-04-06T02:33:42.593Z,2.16
2023-04-06T02:36:09.176Z,2.12
2023-04-06T02:38:35.629Z,2.24
2023-04-06T02:41:02.113Z,2.05
2023-04-06T02:43:28.574Z,2.29
2023-04-06T02:45:55.448Z,2.32
2023-04-06T02:48:21.933Z,2.34
2023-04-06T02:50:48.413Z,2.49
2023-04-06T02:53:14.865Z,2.60
2023-04-06T02:55:41.381Z,2.37
2023-04-06T02:58:07.880Z,2.26
2023-04-06T03:00:34.362Z,2.46
2023-04-06T03:03:00.861Z,2.42
2023-04-06T03:05:27.548Z,2.25
2023-04-06T03:07:53.996Z,2.10
2023-04-06T03:10:20.445Z,2.14
2023-04-06T03:12:46.974Z,2.21
2023-04-06T03:15:13.437Z,1.89
2023-04-06T03:17:40.081Z,1.91
2023-04-06T03:20:06.893Z,1.97
2023-04-06T03:22:33.331Z,2.29
2023-04-06T03:25:01.004Z,2.11
2023-04-06T03:27:29.596Z,2.24
2023-04-06T03:29:56.347Z,2.22
2023-04-06T03:32:22.854Z,2.16
2023-04-06T03:34:49.399Z,2.22
2023-04-06T03:37:15.829Z,2.23
2023-04-06T03:39:42.287Z,2.13
2023-04-06T03:42:08.756Z,2.23
2023-04-06T03:44:35.547Z,2.40
2023-04-06T03:47:03.279Z,2.31
2023-04-06T03:49:29.739Z,2.12
2023-04-06T03:51:57.664Z,2.05
2023-04-06T03:54:24.763Z,1.93
2023-04-06T03:56:51.606Z,1.89
2023-04-06T03:59:18.429Z,1.97
2023-04-06T04:01:44.918Z,2.03
2023-04-06T04:04:11.768Z,1.88
2023-04-06T04:06:38.259Z,1.84
2023-04-06T04:09:04.696Z,1.78
2023-04-06T04:11:31.153Z,2.16
2023-04-06T04:13:57.724Z,2.03
2023-04-06T04:16:24.524Z,2.17
2023-04-06T04:18:51.414Z,2.26
2023-04-06T04:21:18.332Z,2.42
2023-04-06T04:23:44.975Z,2.02
2023-04-06T04:26:11.752Z,2.28
2023-04-06T04:28:38.461Z,2.32
2023-04-06T04:31:05.060Z,2.29
2023-04-06T04:33:31.597Z,2.29
2023-04-06T04:35:58.212Z,2.22
2023-04-06T04:38:24.702Z,2.06
2023-04-06T04:40:51.210Z,2.16
2023-04-06T04:43:17.710Z,2.26
2023-04-06T04:45:44.246Z,2.33
2023-04-06T04:48:11.792Z,2.02
2023-04-06T04:50:38.353Z,2.11
2023-04-06T04:53:07.008Z,2.16
2023-04-06T04:55:33.498Z,1.90
2023-04-06T04:57:59.953Z,1.92
2023-04-06T05:00:26.758Z,1.91
2023-04-06T05:02:53.357Z,1.88
2023-04-06T05:05:19.961Z,2.01
2023-04-06T05:07:46.714Z,1.95
2023-04-06T05:10:13.306Z,2.11
2023-04-06T05:12:39.793Z,2.07
2023-04-06T05:15:06.810Z,2.08
2023-04-06T05:17:33.624Z,2.13
2023-04-06T05:20:00.962Z,2.28
2023-04-06T05:22:27.477Z,2.17
2023-04-06T05:24:53.912Z,2.34
2023-04-06T05:27:20.550Z,2.25
2023-04-06T05:29:47.073Z,2.34
2023-04-06T05:32:13.597Z,2.44
2023-04-06T05:34:40.153Z,2.40
2023-04-06T05:37:06.681Z,2.40
2023-04-06T05:39:33.207Z,2.59
2023-04-06T05:41:59.685Z,2.46
2023-04-06T05:44:26.567Z,2.62
2023-04-06T05:46:53.045Z,2.59
2023-04-06T05:49:19.568Z,2.51
2023-04-06T05:51:46.037Z,2.57
2023-04-06T05:54:12.511Z,2.56
2023-04-06T05:56:39.001Z,2.74
2023-04-06T05:59:05.538Z,2.72
2023-04-06T06:01:32.070Z,2.74
2023-04-06T06:03:58.521Z,2.78
2023-04-06T06:09:20.072Z,3.07
2023-04-06T06:14:29.688Z,3.17
2023-04-06T06:16:56.160Z,3.43
2023-04-06T06:19:22.646Z,3.32
2023-04-06T06:21:49.106Z,3.41
2023-04-06T06:24:15.562Z,3.78
2023-04-06T06:26:42.126Z,4.04
2023-04-06T06:29:08.807Z,4.31
2023-04-06T06:31:36.371Z,4.35
2023-04-06T06:34:03.016Z,4.01
2023-04-06T06:36:31.652Z,4.30
2023-04-06T06:38:59.310Z,4.29
2023-04-06T06:41:27.138Z,4.66
2023-04-06T06:43:53.773Z,4.29
2023-04-06T06:46:21.648Z,4.46
2023-04-06T06:48:50.348Z,4.58
2023-04-06T06:51:16.806Z,4.67
2023-04-06T06:53:43.289Z,4.76
2023-04-06T06:56:09.772Z,5.06
2023-04-06T06:58:36.252Z,5.07
2023-04-06T07:01:06.870Z,5.12
2023-04-06T07:03:33.478Z,4.95
2023-04-06T07:06:00.165Z,5.54
2023-04-06T07:08:26.727Z,5.43
2023-04-06T07:10:54.004Z,5.85
2023-04-06T07:13:24.357Z,6.18
2023-04-06T07:15:51.242Z,5.63
2023-04-06T07:18:18.529Z,5.37
2023-04-06T07:20:45.226Z,5.87
2023-04-06T07:23:11.757Z,6.62
2023-04-06T07:25:38.508Z,6.97
2023-04-06T07:28:05.103Z,7.41
2023-04-06T07:30:32.664Z,7.65
2023-04-06T07:33:00.682Z,7.53
2023-04-06T07:35:28.161Z,7.73
2023-04-06T07:38:15.481Z,7.29
2023-04-06T07:40:41.983Z,8.25
2023-04-06T07:43:08.486Z,7.94
2023-04-06T07:45:34.936Z,7.92
2023-04-06T07:48:01.439Z,7.80
2023-04-06T07:50:27.962Z,8.78
2023-04-06T07:52:55.090Z,9.17
2023-04-06T07:55:26.845Z,9.49
2023-04-06T07:57:53.342Z,9.91
2023-04-06T08:00:23.395Z,9.56
2023-04-06T08:02:50.100Z,9.22
2023-04-06T08:05:17.127Z,8.99
2023-04-06T08:07:44.752Z,9.88
2023-04-06T08:10:11.492Z,10.07
2023-04-06T08:12:42.670Z,10.24
2023-04-06T08:15:49.466Z,10.14
2023-04-06T08:18:19.504Z,9.81
2023-04-06T08:20:46.029Z,10.18
2023-04-06T08:23:12.523Z,10.07
2023-04-06T08:25:43.225Z,10.57
2023-04-06T08:28:10.552Z,10.85
2023-04-06T08:30:42.926Z,11.00
2023-04-06T08:33:14.402Z,11.25
2023-04-06T08:35:45.154Z,11.32
2023-04-06T08:38:24.430Z,10.90
2023-04-06T08:41:00.409Z,10.43
2023-04-06T08:43:29.548Z,11.53
2023-04-06T08:46:19.700Z,11.35
2023-04-06T08:48:47.626Z,12.17
2023-04-06T08:51:18.584Z,11.67
2023-04-06T09:00:44.067Z,11.99
2023-04-06T09:03:25.041Z,11.10
2023-04-06T09:12:34.428Z,11.79
2023-04-06T09:18:56.915Z,11.38
2023-04-06T09:21:25.922Z,12.20
2023-04-06T09:24:03.099Z,11.52
2023-04-06T09:26:32.210Z,11.84
2023-04-06T09:32:31.705Z,12.82
2023-04-06T09:35:36.458Z,12.94
2023-04-06T09:38:24.256Z,12.14
2023-04-06T09:41:01.182Z,12.33
2023-04-06T09:43:28.640Z,12.22
2023-04-06T09:45:56.667Z,13.13
2023-04-06T09:48:23.556Z,12.52
2023-04-06T09:50:51.490Z,13.45
2023-04-06T09:53:20.573Z,12.95
2023-04-06T09:55:48.753Z,12.98
2023-04-06T09:58:27.801Z,13.25
2023-04-06T10:01:20.882Z,12.55
2023-04-06T10:03:57.034Z,12.55
2023-04-06T10:06:26.391Z,12.97
2023-04-06T10:08:55.681Z,12.65
2023-04-06T10:11:22.201Z,13.10
2023-04-06T10:13:49.785Z,12.65
2023-04-06T10:16:16.796Z,13.58
2023-04-06T10:18:47.826Z,13.19
2023-04-06T10:21:17.463Z,12.95
2023-04-06T10:23:53.445Z,13.25
2023-04-06T10:26:23.032Z,12.82
2023-04-06T10:29:03.090Z,13.56
2023-04-06T10:31:31.564Z,13.72
2023-04-06T10:34:00.109Z,13.85
2023-04-06T10:36:29.150Z,13.43
2023-04-06T10:39:00.961Z,12.89
2023-04-06T10:41:44.556Z,13.30
2023-04-06T10:44:31.308Z,13.55
2023-04-06T10:47:01.431Z,13.55
2023-04-06T10:49:28.020Z,12.88
2023-04-06T10:51:55.968Z,12.83
2023-04-06T10:54:23.783Z,12.58
2023-04-06T10:56:50.301Z,12.60
2023-04-06T10:59:23.321Z,13.46
2023-04-06T11:01:50.216Z,13.72
2023-04-06T11:04:19.048Z,14.39
2023-04-06T11:06:49.768Z,13.30
2023-04-06T11:09:29.202Z,14.28
2023-04-06T11:11:57.090Z,13.79
2023-04-06T11:14:24.130Z,13.95
2023-04-06T11:16:51.189Z,14.27
2023-04-06T11:19:18.437Z,14.23
2023-04-06T11:21:49.487Z,13.54
2023-04-06T11:24:20.188Z,13.10
2023-04-06T11:26:49.488Z,14.39
2023-04-06T11:29:17.475Z,14.11
2023-04-06T11:31:47.340Z,14.12
2023-04-06T11:34:17.415Z,13.92
2023-04-06T11:36:45.492Z,14.52
2023-04-06T11:39:19.166Z,14.16
2023-04-06T11:41:53.885Z,14.34
2023-04-06T11:44:41.053Z,14.22
2023-04-06T11:47:09.410Z,14.29
2023-04-06T11:49:38.603Z,14.02
2023-04-06T11:52:16.091Z,15.36
2023-04-06T11:54:42.588Z,15.37
2023-04-06T11:57:09.443Z,14.59
2023-04-06T11:59:36.888Z,14.63
2023-04-06T12:02:04.701Z,13.91
2023-04-06T12:04:31.492Z,14.46
2023-04-06T12:06:58.565Z,14.37
2023-04-06T12:09:25.323Z,13.63
2023-04-06T12:11:51.786Z,14.47
2023-04-06T12:14:18.333Z,14.32
2023-04-06T12:16:44.903Z,13.92
2023-04-06T12:19:11.517Z,14.23
2023-04-06T12:21:38.418Z,15.20
2023-04-06T12:24:06.334Z,15.04
2023-04-06T12:26:33.408Z,14.28
2023-04-06T12:29:07.554Z,15.43
2023-04-06T12:31:36.058Z,15.51
2023-04-06T12:34:04.119Z,15.46
2023-04-06T12:36:30.732Z,15.69
2023-04-06T12:38:57.180Z,15.44
2023-04-06T12:41:23.971Z,15.13
2023-04-06T12:43:53.368Z,14.16
2023-04-06T12:46:20.879Z,14.40
2023-04-06T12:48:47.410Z,15.16
2023-04-06T12:51:13.880Z,15.47
2023-04-06T12:53:40.467Z,16.39
2023-04-06T12:56:15.062Z,15.45
2023-04-06T12:58:44.474Z,16.23
2023-04-06T13:01:12.606Z,15.94
2023-04-06T13:03:39.599Z,16.24
2023-04-06T13:06:06.415Z,16.02
2023-04-06T13:08:32.952Z,15.18
2023-04-06T13:10:59.440Z,15.50
2023-04-06T13:13:29.912Z,14.85
2023-04-06T13:16:04.387Z,15.35
2023-04-06T13:18:32.479Z,15.74
2023-04-06T13:21:00.495Z,14.89
2023-04-06T13:23:27.695Z,14.91
2023-04-06T13:26:01.619Z,14.22
2023-04-06T13:28:28.802Z,14.90
2023-04-06T13:30:56.379Z,14.79
2023-04-06T13:33:23.206Z,14.71
2023-04-06T13:35:49.672Z,15.26
2023-04-06T13:38:17.041Z,15.47
2023-04-06T13:40:43.647Z,15.20
2023-04-06T13:43:10.177Z,15.53
2023-04-06T13:45:37.763Z,15.67
2023-04-06T13:48:04.544Z,15.74
2023-04-06T13:50:31.093Z,15.77
2023-04-06T13:52:57.567Z,15.55
2023-04-06T13:55:27.153Z,16.25
2023-04-06T13:57:53.718Z,15.33
2023-04-06T14:00:20.440Z,15.44
2023-04-06T14:02:47.073Z,15.09
2023-04-06T14:05:13.801Z,15.21
2023-04-06T14:07:41.203Z,15.30
2023-04-06T14:10:14.704Z,14.71
2023-04-06T14:12:47.556Z,14.83
2023-04-06T14:15:14.097Z,14.85
2023-04-06T14:17:40.698Z,14.63
2023-04-06T14:20:07.949Z,14.53
2023-04-06T14:22:34.402Z,14.37
2023-04-06T14:25:00.858Z,14.06
2023-04-06T14:27:27.302Z,14.40
2023-04-06T14:29:55.032Z,14.48
2023-04-06T14:32:22.612Z,14.49
2023-04-06T14:34:49.114Z,14.46
2023-04-06T14:37:15.648Z,14.27
2023-04-06T14:39:42.135Z,14.13
2023-04-06T14:42:08.591Z,13.92
2023-04-06T14:44:37.616Z,13.92
2023-04-06T14:47:06.335Z,14.12
2023-04-06T14:49:33.089Z,14.37
2023-04-06T14:52:00.475Z,14.15
2023-04-06T14:54:26.964Z,13.68
2023-04-06T14:56:53.427Z,14.29
2023-04-06T14:59:19.859Z,14.24
2023-04-06T15:01:46.613Z,14.42
2023-04-06T15:04:13.319Z,14.36
2023-04-06T15:06:39.908Z,14.07
2023-04-06T15:09:06.410Z,14.18
2023-04-06T15:11:32.881Z,14.49
2023-04-06T15:14:01.413Z,14.31
2023-04-06T15:16:28.215Z,13.96
2023-04-06T15:18:54.749Z,13.61
2023-04-06T15:21:21.613Z,13.36
2023-04-06T15:23:48.384Z,13.32
2023-04-06T15:26:15.513Z,13.91
2023-04-06T15:28:42.103Z,13.95
2023-04-06T15:33:48.567Z,13.35
2023-04-06T15:36:33.994Z,13.05
2023-04-06T15:39:01.671Z,13.48
2023-04-06T15:41:28.540Z,13.53
2023-04-06T15:43:55.777Z,13.56
2023-04-06T15:46:22.565Z,13.35
2023-04-06T15:48:49.156Z,13.16
2023-04-06T15:51:17.673Z,13.92
2023-04-06T15:53:44.951Z,13.75
2023-04-06T15:56:11.726Z,13.86
2023-04-06T15:58:38.260Z,13.76
2023-04-06T16:01:12.941Z,13.99
2023-04-06T16:03:39.729Z,13.77
2023-04-06T16:06:08.878Z,14.06
2023-04-06T16:08:36.781Z,13.96
2023-04-06T16:11:03.721Z,13.17
2023-04-06T16:13:30.295Z,13.48
2023-04-06T16:15:56.913Z,13.64
2023-04-06T16:18:23.468Z,13.67
2023-04-06T16:20:50.046Z,13.53
2023-04-06T16:23:16.607Z,13.32
2023-04-06T16:25:43.068Z,13.20
2023-04-06T16:28:09.571Z,12.94
2023-04-06T16:30:40.500Z,13.46
2023-04-06T16:33:09.903Z,13.18
2023-04-06T16:35:36.777Z,12.97
2023-04-06T16:38:03.242Z,13.27
2023-04-06T16:40:29.763Z,13.15
2023-04-06T16:42:56.206Z,12.60
2023-04-06T16:45:22.757Z,13.01
2023-04-06T16:47:50.484Z,12.41
2023-04-06T16:50:17.553Z,12.57
2023-04-06T16:52:44.281Z,12.74
2023-04-06T16:55:11.323Z,12.74
2023-04-06T16:57:37.803Z,12.53
2023-04-06T17:00:06.043Z,12.53
2023-04-06T17:02:36.136Z,12.80
2023-04-06T17:05:04.105Z,12.34
2023-04-06T17:07:35.523Z,12.33
2023-04-06T17:10:03.648Z,12.46
2023-04-06T17:12:30.175Z,12.41
2023-04-06T17:14:58.155Z,12.18
2023-04-06T17:17:24.731Z,12.31
2023-04-06T17:19:51.243Z,12.54
2023-04-06T17:22:20.891Z,12.13
2023-04-06T17:24:48.670Z,12.34
2023-04-06T17:27:15.930Z,12.42
2023-04-06T17:29:42.556Z,12.60
2023-04-06T17:32:09.152Z,12.30
2023-04-06T17:34:35.766Z,12.14
2023-04-06T17:37:02.644Z,12.61
2023-04-06T17:39:29.086Z,12.22
2023-04-06T17:41:55.623Z,12.43
2023-04-06T17:44:22.093Z,11.91
2023-04-06T17:46:48.819Z,11.75
2023-04-06T17:49:15.410Z,12.18
2023-04-06T17:51:41.977Z,11.32
2023-04-06T17:54:08.433Z,11.55
2023-04-06T17:56:34.920Z,11.08
2023-04-06T17:59:01.358Z,11.46
2023-04-06T18:01:28.091Z,11.39
2023-04-06T18:03:54.745Z,11.20
2023-04-06T18:06:25.119Z,11.18
2023-04-06T18:08:52.370Z,11.07
2023-04-06T18:11:21.436Z,11.42
2023-04-06T18:13:47.988Z,11.11
2023-04-06T18:16:16.413Z,11.07
2023-04-06T18:18:43.077Z,10.91
2023-04-06T18:21:09.580Z,10.64
2023-04-06T18:23:37.695Z,10.69
2023-04-06T18:26:05.586Z,11.04
2023-04-06T18:28:32.286Z,10.99
2023-04-06T18:30:59.728Z,10.67
2023-04-06T18:33:29.135Z,10.99
2023-04-06T18:35:56.743Z,10.78
2023-04-06T18:38:24.151Z,10.93
2023-04-06T18:40:50.676Z,10.58
2023-04-06T18:43:17.165Z,10.82
2023-04-06T18:45:43.699Z,10.34
2023-04-06T18:48:10.496Z,10.52
2023-04-06T18:50:37.129Z,10.43
2023-04-06T18:53:04.186Z,10.00
2023-04-06T18:55:33.790Z,9.80
2023-04-06T18:58:00.600Z,9.97
2023-04-06T19:00:27.141Z,10.30
2023-04-06T19:02:54.091Z,10.24
2023-04-06T19:05:22.517Z,10.23
2023-04-06T19:07:52.680Z,10.10
2023-04-06T19:10:21.426Z,9.66
2023-04-06T19:12:48.944Z,9.45
2023-04-06T19:15:15.701Z,9.58
2023-04-06T19:17:42.544Z,9.62
2023-04-06T19:20:09.597Z,9.55
2023-04-06T19:22:37.742Z,9.43
2023-04-06T19:25:07.235Z,9.53
2023-04-06T19:27:34.132Z,9.33
2023-04-06T19:30:01.710Z,9.36
2023-04-06T19:32:30.238Z,9.32
2023-04-06T19:34:56.966Z,9.20
2023-04-06T19:37:23.525Z,9.21
2023-04-06T19:39:50.497Z,9.21
2023-04-06T19:42:21.990Z,9.10
2023-04-06T19:44:48.643Z,9.00
2023-04-06T19:47:15.478Z,8.85
2023-04-06T19:49:42.066Z,9.05
2023-04-06T19:52:10.092Z,8.90
2023-04-06T19:54:39.554Z,8.85
2023-04-06T19:57:06.219Z,8.59
2023-04-06T19:59:34.412Z,8.63
2023-04-06T20:02:01.139Z,8.69
2023-04-06T20:04:27.820Z,8.79
2023-04-06T20:06:54.377Z,8.28
2023-04-06T20:09:21.774Z,8.49
2023-04-06T20:11:48.226Z,8.41
2023-04-06T20:14:15.602Z,8.54
2023-04-06T20:16:42.108Z,8.41
2023-04-06T20:19:08.708Z,8.56
2023-04-06T20:21:36.283Z,8.59
2023-04-06T20:24:04.226Z,8.23
2023-04-06T20:26:30.903Z,8.34
2023-04-06T20:28:57.403Z,8.12
2023-04-06T20:31:27.710Z,8.23
2023-04-06T20:33:54.659Z,8.09
2023-04-06T20:36:22.297Z,8.17
2023-04-06T20:38:48.893Z,8.42
2023-04-06T20:41:19.153Z,7.97
2023-04-06T20:43:45.834Z,8.15
2023-04-06T20:46:17.084Z,8.36
2023-04-06T20:48:44.019Z,7.95
2023-04-06T20:51:18.190Z,7.84
2023-04-06T20:53:44.706Z,7.69
2023-04-06T20:56:11.428Z,7.77
2023-04-06T20:58:37.898Z,8.26
2023-04-06T21:01:04.451Z,7.91
2023-04-06T21:03:31.052Z,8.18
2023-04-06T21:05:59.012Z,8.00
2023-04-06T21:08:25.663Z,7.85
2023-04-06T21:10:52.133Z,7.81
2023-04-06T21:13:18.645Z,7.91
2023-04-06T21:15:45.198Z,7.91
2023-04-06T21:18:12.364Z,7.94
2023-04-06T21:20:39.937Z,8.00
2023-04-06T21:23:06.447Z,7.61
2023-04-06T21:25:32.878Z,7.57
2023-04-06T21:27:59.338Z,7.92
2023-04-06T21:30:25.821Z,7.62
2023-04-06T21:32:52.372Z,7.50
2023-04-06T21:35:18.900Z,7.68
2023-04-06T21:37:45.479Z,7.37
2023-04-06T21:40:12.960Z,7.51
2023-04-06T21:42:39.504Z,7.52
2023-04-06T21:45:06.451Z,7.25
2023-04-06T21:47:34.929Z,7.31
2023-04-06T21:50:01.498Z,7.07
2023-04-06T21:52:27.970Z,7.18
2023-04-06T21:54:54.466Z,7.33
2023-04-06T21:57:21.111Z,7.36
2023-04-06T21:59:48.012Z,7.13
2023-04-06T22:02:14.725Z,7.32
2023-04-06T22:04:41.397Z,7.11
2023-04-06T22:07:08.047Z,7.15
2023-04-06T22:09:35.236Z,7.33
2023-04-06T22:12:02.033Z,7.32
2023-04-06T22:14:30.188Z,7.28
2023-04-06T22:16:57.590Z,7.13
2023-04-06T22:19:24.071Z,7.17
2023-04-06T22:21:50.929Z,7.22
2023-04-06T22:24:17.818Z,7.26
2023-04-06T22:26:44.509Z,6.95
2023-04-06T22:29:10.991Z,7.16
2023-04-06T22:31:37.473Z,6.91
2023-04-06T22:34:04.015Z,6.99
2023-04-06T22:36:31.810Z,7.07
2023-04-06T22:38:58.290Z,6.84
2023-04-06T22:41:24.801Z,6.92
2023-04-06T22:43:51.265Z,6.98
2023-04-06T22:46:17.796Z,6.96
2023-04-06T22:48:44.249Z,6.92
2023-04-06T22:51:10.695Z,7.24
2023-04-06T22:53:37.198Z,6.89
2023-04-06T22:56:03.726Z,6.99
2023-04-06T22:58:30.327Z,6.95
2023-04-06T23:00:56.861Z,6.72
2023-04-06T23:03:23.477Z,7.06
2023-04-06T23:05:50.019Z,7.29
2023-04-06T23:08:16.518Z,7.00
2023-04-06T23:10:43.008Z,6.96
2023-04-06T23:13:10.381Z,6.73
2023-04-06T23:15:37.046Z,7.16
2023-04-06T23:18:03.720Z,6.78
2023-04-06T23:20:30.325Z,7.02
2023-04-06T23:22:56.769Z,7.07
2023-04-06T23:25:23.323Z,6.79
2023-04-06T23:27:49.762Z,6.67
2023-04-06T23:30:16.377Z,6.96
2023-04-06T23:32:42.970Z,6.86
2023-04-06T23:35:09.701Z,6.78
2023-04-06T23:37:36.281Z,7.11
2023-04-06T23:40:03.080Z,6.96
2023-04-06T23:42:29.524Z,6.91
2023-04-06T23:44:56.155Z,6.92
2023-04-06T23:47:22.689Z,7.07
2023-04-06T23:49:49.227Z,6.85
2023-04-06T23:52:15.671Z,6.93
2023-04-06T23:54:42.122Z,6.31
2023-04-06T23:57:08.593Z,6.88
2023-04-06T23:59:35.334Z,6.74
